Barkley Regional Airport
KPAH : rendu visible

Aérodrome :











RETROUVEZ-NOUS SUR...

 
LOGIN :

S'inscrire | Disclaimer

   EN    FR    IT 

 









Légende :    VFR   VFR Marginal   IFR   IFR Intensif   IFR Très Intensif
Visi : 
Plafond : 
>= 8 km
>= 3000ft
5 à 8 km
1000 à 3000 ft
1500m à 5 km
500 à 1000 ft
800 à 1500m
200 à 500 ft
< 800m
< 200 ft
Symboles :   Orages  Brouillard  Fortes neiges  Fortes précipitations  Vent > 20 kt






- Altitude de l'aérodrome : 410 ft
- Code IATA : PAH


KPAH - Barkley Regional

DERNIER METAR :
  • 181653Z 23014G23KT 10SM BKN012 BKN017 OVC044 14/11 A3002 RMK AO2 PK WND 23026/1632 SLP164 T01390111

METARs EXPIRÉS :
  • 181553Z 23012G22KT 10SM OVC011 12/10 A3001 RMK AO2 PK WND 19028/1454 RAE18 SLP161 P0002 T01220100
  • 181523Z 22010G23KT 10SM OVC010 11/09 A2999 RMK AO2 PK WND 19028/1454 RAE18 CIG 007V014 P0002 T01110094
  • 181511Z 21012G21KT 4SM -RA BR OVC009 11/09 A3000 RMK AO2 PK WND 19028/1454 CIG 007V014 P0002 T01110094
  • 181453Z 22015G30KT 10SM -RA OVC011 11/09 A2998 RMK AO2 PK WND 22030/1451 CIG 009V014 SLP153 P0011 60029 T01110089 53018
  • 181422Z 21013G28KT 3SM -RA BR BKN013 BKN024 OVC040 11/09 A2997 RMK AO2 PK WND 18029/1407 P0010 T01060089
  • 181358Z 21015G31KT 2 1/2SM RA BR FEW017 BKN023 OVC039 11/08 A2995 RMK AO2 PK WND 22026/1355 VIS 1 1/2V4 P0002 T01060083

TAF KPAH
Valide du 18 à 12h jusqu'au 19 à 12h UTC


181140Z 1812/1912 19021G33KT P6SM -SHRA OVC025
FM181300 20019G30KT 6SM SHRA OVC012
FM181500 22016G26KT P6SM VCSH OVC015
FM181800 27016G25KT P6SM OVC025
FM182200 29017G26KT P6SM SCT025
FM190200 31012G21KT P6SM SKC



MET'MAP, la Météo Aéronautique d'un coup d'oeil ! - Copyright ORBIFLY Décembre 2007 - Disclaimer

ORBIFLY MET'MAP TEAM :

Programmation & Développement : Alexandra Zaïnal
Sur une idée originale de : Baudouin d'Aumeries
Assistance à la programmation : Marc-Olivier Méhu
Soutien technique & logistique : Manuel Goepfert

Contact : metmap@orbifly.com




SOURCES & CREDITS :

   NOAA       Earth
Advisory